createdAt,value
2023-02-12T00:00:10.890Z,87.70
2023-02-12T00:01:10.827Z,79.80
2023-02-12T00:02:10.836Z,87.80
2023-02-12T00:03:10.760Z,84.70
2023-02-12T00:04:10.704Z,85.80
2023-02-12T00:05:10.718Z,88.30
2023-02-12T00:06:10.627Z,84.30
2023-02-12T00:07:10.565Z,83.30
2023-02-12T00:08:10.535Z,86.40
2023-02-12T00:09:10.483Z,88.10
2023-02-12T00:10:10.455Z,89.40
2023-02-12T00:11:10.401Z,85.60
2023-02-12T00:12:10.379Z,87.70
2023-02-12T00:13:10.327Z,82.50
2023-02-12T00:14:10.278Z,81.20
2023-02-12T00:15:10.238Z,84.60
2023-02-12T00:16:10.299Z,85.30
2023-02-12T00:17:10.148Z,82.40
2023-02-12T00:18:10.123Z,86.10
2023-02-12T00:19:10.066Z,83.70
2023-02-12T00:20:10.024Z,84.10
2023-02-12T00:21:09.979Z,87.40
2023-02-12T00:22:09.939Z,82.00
2023-02-12T00:23:09.896Z,80.50
2023-02-12T00:24:09.868Z,83.20
2023-02-12T00:25:09.816Z,84.70
2023-02-12T00:26:09.772Z,80.80
2023-02-12T00:27:09.727Z,79.80
2023-02-12T00:28:09.749Z,87.80
2023-02-12T00:29:09.660Z,86.00
2023-02-12T00:30:09.609Z,83.70
2023-02-12T00:31:09.693Z,84.60
2023-02-12T00:32:09.542Z,81.30
2023-02-12T00:33:09.479Z,87.20
2023-02-12T00:34:09.434Z,83.90
2023-02-12T00:35:09.395Z,87.60
2023-02-12T00:36:09.367Z,82.30
2023-02-12T00:37:09.309Z,81.30
2023-02-12T00:38:09.334Z,83.10
2023-02-12T00:39:09.236Z,78.30
2023-02-12T00:40:09.187Z,80.80
2023-02-12T00:41:09.142Z,80.40
2023-02-12T00:42:09.098Z,80.10
2023-02-12T00:43:09.061Z,78.80
2023-02-12T00:44:09.024Z,81.70
2023-02-12T00:45:08.975Z,85.30
2023-02-12T00:46:08.967Z,82.00
2023-02-12T00:47:08.889Z,82.80
2023-02-12T00:48:08.845Z,81.70
2023-02-12T00:49:08.805Z,92.60
2023-02-12T00:50:08.983Z,83.00
2023-02-12T00:51:08.728Z,85.00
2023-02-12T00:52:08.697Z,86.60
2023-02-12T00:53:08.634Z,90.50
2023-02-12T00:54:08.594Z,86.80
2023-02-12T00:55:08.552Z,78.70
2023-02-12T00:56:08.516Z,79.10
2023-02-12T00:57:08.468Z,77.50
2023-02-12T00:58:08.446Z,74.70
2023-02-12T00:59:08.394Z,83.50
2023-02-12T01:00:08.344Z,84.30
2023-02-12T01:01:08.353Z,79.30
2023-02-12T01:02:08.260Z,79.20
2023-02-12T01:03:08.221Z,79.30
2023-02-12T01:04:08.196Z,81.20
2023-02-12T01:05:08.194Z,83.20
2023-02-12T01:06:08.092Z,81.80
2023-02-12T01:07:08.052Z,78.40
2023-02-12T01:08:08.017Z,83.70
2023-02-12T01:09:07.971Z,80.40
2023-02-12T01:10:07.944Z,80.00
2023-02-12T01:11:07.892Z,81.80
2023-02-12T01:12:07.841Z,80.30
2023-02-12T01:13:07.794Z,84.30
2023-02-12T01:14:07.757Z,88.80
2023-02-12T01:15:07.726Z,82.70
2023-02-12T01:16:07.763Z,82.70
2023-02-12T01:17:07.638Z,86.30
2023-02-12T01:18:07.587Z,83.80
2023-02-12T01:19:07.555Z,85.10
2023-02-12T01:20:07.504Z,84.90
2023-02-12T01:21:07.471Z,82.30
2023-02-12T01:22:07.439Z,83.90
2023-02-12T01:23:07.380Z,83.50
2023-02-12T01:24:07.417Z,81.40
2023-02-12T01:25:07.294Z,78.80
2023-02-12T01:26:07.259Z,80.20
2023-02-12T01:27:07.219Z,82.30
2023-02-12T01:28:07.213Z,81.40
2023-02-12T01:29:07.135Z,80.70
2023-02-12T01:30:07.093Z,82.70
2023-02-12T01:31:07.107Z,80.80
2023-02-12T01:32:07.100Z,82.30
2023-02-12T01:33:06.973Z,76.70
2023-02-12T01:34:06.928Z,84.60
2023-02-12T01:35:06.877Z,82.80
2023-02-12T01:36:06.830Z,87.40
2023-02-12T01:37:06.789Z,87.30
2023-02-12T01:38:06.776Z,85.70
2023-02-12T01:39:06.714Z,78.50
2023-02-12T01:40:06.671Z,74.10
2023-02-12T01:41:06.625Z,76.80
2023-02-12T01:42:06.617Z,78.90
2023-02-12T01:43:06.543Z,77.80
2023-02-12T01:44:06.514Z,80.40
2023-02-12T01:45:06.463Z,80.40
2023-02-12T01:46:06.462Z,79.90
2023-02-12T01:47:06.368Z,82.50
2023-02-12T01:48:06.332Z,87.90
2023-02-12T01:49:06.304Z,84.50
2023-02-12T01:50:06.249Z,85.00
2023-02-12T01:51:06.201Z,87.40
2023-02-12T01:52:06.160Z,84.50
2023-02-12T01:53:06.123Z,86.40
2023-02-12T01:54:06.098Z,88.00
2023-02-12T01:55:06.040Z,88.20
2023-02-12T01:56:06.006Z,89.80
2023-02-12T01:57:05.960Z,89.60
2023-02-12T01:58:05.911Z,90.00
2023-02-12T01:59:05.861Z,84.50
2023-02-12T02:00:05.852Z,83.50
2023-02-12T02:01:05.790Z,87.30
2023-02-12T02:02:05.800Z,79.40
2023-02-12T02:03:05.740Z,80.90
2023-02-12T02:04:05.653Z,83.20
2023-02-12T02:05:05.613Z,80.50
2023-02-12T02:06:05.590Z,84.20
2023-02-12T02:07:05.539Z,82.40
2023-02-12T02:08:05.513Z,81.90
2023-02-12T02:09:05.453Z,82.30
2023-02-12T02:10:05.420Z,82.50
2023-02-12T02:11:05.367Z,89.50
2023-02-12T02:12:05.354Z,86.60
2023-02-12T02:13:05.270Z,87.60
2023-02-12T02:14:05.242Z,85.10
2023-02-12T02:15:05.185Z,86.60
2023-02-12T02:16:05.211Z,89.60
2023-02-12T02:17:05.113Z,89.40
2023-02-12T02:18:05.070Z,90.80
2023-02-12T02:19:05.027Z,84.60
2023-02-12T02:20:04.993Z,84.60
2023-02-12T02:21:04.938Z,86.00
2023-02-12T02:22:04.895Z,82.20
2023-02-12T02:23:04.854Z,83.60
2023-02-12T02:24:04.812Z,88.80
2023-02-12T02:25:04.761Z,90.10
2023-02-12T02:26:04.730Z,90.60
2023-02-12T02:27:04.676Z,86.50
2023-02-12T02:28:04.689Z,88.20
2023-02-12T02:29:04.601Z,91.00
2023-02-12T02:30:04.573Z,93.30
2023-02-12T02:31:04.649Z,87.50
2023-02-12T02:32:04.538Z,94.90
2023-02-12T02:33:04.436Z,94.00
2023-02-12T02:34:04.399Z,91.20
2023-02-12T02:35:04.340Z,95.50
2023-02-12T02:36:04.297Z,96.80
2023-02-12T02:37:04.264Z,97.40
2023-02-12T02:38:04.217Z,97.90
2023-02-12T02:39:04.181Z,97.10
2023-02-12T02:40:04.151Z,92.80
2023-02-12T02:41:04.089Z,95.50
2023-02-12T02:42:04.043Z,91.90
2023-02-12T02:43:04.002Z,94.40
2023-02-12T02:44:03.968Z,98.90
2023-02-12T02:45:03.926Z,99.10
2023-02-12T02:46:03.876Z,100.20
2023-02-12T02:47:03.847Z,105.50
2023-02-12T02:48:03.798Z,99.90
2023-02-12T02:49:03.752Z,100.50
2023-02-12T02:50:03.705Z,93.00
2023-02-12T02:51:03.681Z,84.10
2023-02-12T02:52:03.619Z,87.60
2023-02-12T02:53:03.578Z,89.30
2023-02-12T02:54:03.534Z,93.70
2023-02-12T02:55:03.499Z,92.60
2023-02-12T02:56:03.462Z,89.10
2023-02-12T02:57:03.413Z,96.90
2023-02-12T02:58:03.364Z,100.90
2023-02-12T02:59:03.338Z,99.10
2023-02-12T03:00:03.278Z,104.80
2023-02-12T03:01:03.367Z,106.80
2023-02-12T03:02:03.210Z,101.00
2023-02-12T03:03:03.204Z,95.60
2023-02-12T03:04:03.121Z,93.30
2023-02-12T03:05:03.081Z,90.80
2023-02-12T03:06:03.038Z,91.20
2023-02-12T03:07:03.006Z,88.90
2023-02-12T03:08:02.948Z,95.10
2023-02-12T03:09:02.904Z,90.30
2023-02-12T03:10:02.861Z,93.50
2023-02-12T03:11:02.826Z,97.10
2023-02-12T03:12:02.774Z,90.40
2023-02-12T03:13:02.752Z,91.70
2023-02-12T03:14:02.698Z,92.20
2023-02-12T03:15:02.649Z,88.50
2023-02-12T03:16:02.629Z,94.50
2023-02-12T03:17:02.601Z,85.40
2023-02-12T03:18:02.531Z,94.60
2023-02-12T03:19:02.476Z,85.90
2023-02-12T03:20:02.456Z,101.70
2023-02-12T03:21:02.402Z,102.10
2023-02-12T03:22:02.349Z,100.10
2023-02-12T03:23:02.330Z,97.00
2023-02-12T03:24:02.269Z,101.80
2023-02-12T03:25:02.224Z,102.40
2023-02-12T03:26:02.192Z,103.60
2023-02-12T03:27:02.147Z,99.20
2023-02-12T03:28:02.142Z,92.60
2023-02-12T03:29:02.071Z,103.50
2023-02-12T03:30:02.048Z,99.70
2023-02-12T03:31:02.074Z,95.90
2023-02-12T03:32:01.939Z,97.20
2023-02-12T03:33:01.885Z,94.00
2023-02-12T03:34:01.845Z,98.80
2023-02-12T03:35:01.830Z,100.90
2023-02-12T03:36:01.776Z,103.40
2023-02-12T03:37:01.726Z,108.30
2023-02-12T03:38:01.707Z,107.50
2023-02-12T03:39:01.633Z,102.50
2023-02-12T03:40:01.616Z,97.50
2023-02-12T03:41:01.560Z,103.90
2023-02-12T03:42:01.508Z,102.30
2023-02-12T03:43:01.469Z,105.00
2023-02-12T03:44:01.421Z,103.60
2023-02-12T03:45:01.380Z,103.40
2023-02-12T03:46:01.363Z,102.70
2023-02-12T03:47:01.313Z,101.40
2023-02-12T03:48:01.254Z,100.10
2023-02-12T03:49:01.209Z,99.00
2023-02-12T03:50:01.170Z,91.40
2023-02-12T03:51:01.131Z,86.70
2023-02-12T03:52:01.096Z,86.50
2023-02-12T03:53:01.046Z,84.30
2023-02-12T03:54:00.997Z,83.70
2023-02-12T03:55:00.967Z,85.80
2023-02-12T03:56:00.913Z,93.10
2023-02-12T03:57:00.897Z,90.30
2023-02-12T03:58:00.840Z,85.60
2023-02-12T03:59:00.791Z,92.20
2023-02-12T04:00:00.759Z,96.70
2023-02-12T04:01:00.727Z,93.00
2023-02-12T04:02:00.737Z,92.90
2023-02-12T04:03:00.622Z,96.60
2023-02-12T04:04:00.605Z,89.00
2023-02-12T04:05:00.530Z,97.00
2023-02-12T04:06:00.482Z,94.00
2023-02-12T04:07:00.460Z,93.40
2023-02-12T04:08:00.432Z,94.30
2023-02-12T04:09:00.359Z,98.40
2023-02-12T04:10:00.312Z,92.20
2023-02-12T04:11:00.272Z,89.20
2023-02-12T04:12:00.225Z,90.40
2023-02-12T04:13:00.185Z,91.60
2023-02-12T04:14:00.160Z,85.70
2023-02-12T04:15:00.111Z,95.30
2023-02-12T04:16:00.050Z,102.40
2023-02-12T04:17:00.247Z,89.30
2023-02-12T04:17:59.970Z,92.00
2023-02-12T04:18:59.956Z,85.60
2023-02-12T04:19:59.935Z,91.80
2023-02-12T04:20:59.899Z,92.60
2023-02-12T04:21:59.810Z,92.80
2023-02-12T04:22:59.764Z,94.10
2023-02-12T04:23:59.714Z,94.60
2023-02-12T04:24:59.685Z,94.50
2023-02-12T04:25:59.628Z,93.50
2023-02-12T04:26:59.589Z,96.10
2023-02-12T04:27:59.577Z,100.20
2023-02-12T04:28:59.526Z,99.00
2023-02-12T04:29:59.488Z,98.80
2023-02-12T04:30:59.540Z,97.10
2023-02-12T04:31:59.396Z,99.50
2023-02-12T04:32:59.343Z,98.60
2023-02-12T04:33:59.296Z,102.30
2023-02-12T04:34:59.267Z,97.30
2023-02-12T04:35:59.229Z,100.00
2023-02-12T04:36:59.184Z,100.90
2023-02-12T04:37:59.131Z,96.20
2023-02-12T04:38:59.090Z,100.50
2023-02-12T04:39:59.047Z,97.70
2023-02-12T04:40:59.013Z,99.20
2023-02-12T04:41:58.956Z,98.50
2023-02-12T04:42:58.917Z,98.90
2023-02-12T04:43:58.872Z,97.80
2023-02-12T04:44:58.841Z,102.20
2023-02-12T04:45:59.112Z,103.00
2023-02-12T04:46:58.756Z,101.10
2023-02-12T04:47:58.709Z,103.90
2023-02-12T04:48:58.741Z,99.80
2023-02-12T04:49:58.634Z,101.10
2023-02-12T04:50:58.612Z,97.60
2023-02-12T04:51:58.550Z,104.40
2023-02-12T04:52:58.491Z,105.70
2023-02-12T04:53:58.468Z,102.40
2023-02-12T04:54:58.411Z,99.70
2023-02-12T04:55:58.565Z,104.50
2023-02-12T04:56:58.329Z,103.90
2023-02-12T04:57:58.305Z,104.90
2023-02-12T04:58:58.244Z,97.10
2023-02-12T04:59:58.207Z,97.70
2023-02-12T05:00:58.209Z,96.30
2023-02-12T05:01:58.110Z,93.30
2023-02-12T05:02:58.080Z,91.90
2023-02-12T05:03:58.114Z,97.20
2023-02-12T05:04:58.045Z,99.60
2023-02-12T05:05:58.052Z,98.60
2023-02-12T05:06:57.908Z,97.80
2023-02-12T05:07:57.861Z,97.10
2023-02-12T05:08:57.821Z,97.40
2023-02-12T05:09:57.768Z,94.00
2023-02-12T05:10:57.754Z,94.40
2023-02-12T05:11:57.721Z,96.00
2023-02-12T05:12:57.648Z,89.50
2023-02-12T05:13:57.610Z,90.90
2023-02-12T05:14:57.573Z,98.20
2023-02-12T05:15:57.818Z,98.90
2023-02-12T05:16:57.489Z,102.60
2023-02-12T05:17:57.488Z,104.50
2023-02-12T05:18:57.393Z,98.20
2023-02-12T05:19:57.348Z,95.70
2023-02-12T05:20:57.320Z,96.60
2023-02-12T05:21:57.268Z,97.00
2023-02-12T05:22:57.228Z,101.60
2023-02-12T05:23:57.198Z,98.20
2023-02-12T05:24:57.666Z,97.20
2023-02-12T05:25:57.329Z,102.50
2023-02-12T05:26:57.052Z,96.20
2023-02-12T05:27:57.176Z,98.70
2023-02-12T05:28:56.973Z,97.90
2023-02-12T05:29:56.942Z,98.20
2023-02-12T05:31:04.861Z,94.60
2023-02-12T05:31:56.956Z,93.20
2023-02-12T05:32:56.804Z,98.90
2023-02-12T05:33:56.755Z,94.60
2023-02-12T05:34:56.726Z,97.00
2023-02-12T05:35:56.971Z,93.60
2023-02-12T05:36:56.630Z,92.10
2023-02-12T05:37:56.587Z,96.40
2023-02-12T05:38:56.550Z,97.10
2023-02-12T05:39:56.500Z,98.40
2023-02-12T05:40:56.466Z,95.30
2023-02-12T05:41:56.413Z,97.10
2023-02-12T05:42:56.374Z,100.80
2023-02-12T05:43:56.330Z,95.70
2023-02-12T05:44:56.287Z,94.30
2023-02-12T05:45:56.724Z,96.80
2023-02-12T05:46:56.202Z,96.60
2023-02-12T05:47:56.170Z,103.40
2023-02-12T05:48:56.117Z,98.70
2023-02-12T05:49:56.075Z,101.00
2023-02-12T05:50:56.058Z,91.90
2023-02-12T05:51:55.991Z,91.80
2023-02-12T05:52:55.956Z,95.20
2023-02-12T05:53:55.903Z,91.30
2023-02-12T05:54:55.863Z,94.50
2023-02-12T05:55:56.194Z,90.60
2023-02-12T05:56:55.799Z,95.20
2023-02-12T05:57:55.736Z,90.10
2023-02-12T05:58:55.705Z,97.20
2023-02-12T05:59:55.648Z,97.70
2023-02-12T06:00:55.613Z,103.50
2023-02-12T06:01:55.570Z,108.90
2023-02-12T06:02:55.572Z,105.20
2023-02-12T06:03:55.525Z,104.40
2023-02-12T06:04:55.485Z,104.30
2023-02-12T06:05:55.567Z,101.90
2023-02-12T06:06:55.353Z,102.00
2023-02-12T06:07:55.315Z,101.30
2023-02-12T06:08:55.267Z,91.30
2023-02-12T06:09:55.225Z,93.50
2023-02-12T06:10:55.199Z,88.50
2023-02-12T06:11:55.141Z,97.00
2023-02-12T06:12:55.096Z,100.70
2023-02-12T06:13:55.056Z,96.80
2023-02-12T06:14:55.031Z,94.50
2023-02-12T06:15:55.341Z,105.60
2023-02-12T06:16:54.942Z,97.80
2023-02-12T06:17:54.889Z,102.30
2023-02-12T06:18:54.848Z,101.90
2023-02-12T06:19:54.799Z,99.40
2023-02-12T06:20:54.759Z,103.10
2023-02-12T06:21:54.717Z,99.40
2023-02-12T06:22:54.691Z,102.80
2023-02-12T06:23:54.659Z,98.90
2023-02-12T06:24:54.593Z,103.70
2023-02-12T06:25:54.832Z,100.10
2023-02-12T06:26:54.519Z,100.70
2023-02-12T06:27:54.465Z,100.80
2023-02-12T06:28:54.435Z,105.30
2023-02-12T06:29:54.381Z,98.30
2023-02-12T06:30:54.424Z,104.70
2023-02-12T06:31:54.357Z,111.20
2023-02-12T06:32:54.316Z,105.60
2023-02-12T06:33:54.221Z,108.60
2023-02-12T06:34:54.178Z,111.70
2023-02-12T06:35:54.360Z,116.90
2023-02-12T06:36:54.086Z,106.90
2023-02-12T06:37:54.047Z,101.90
2023-02-12T06:38:54.007Z,94.30
2023-02-12T06:39:53.968Z,94.40
2023-02-12T06:40:53.926Z,95.60
2023-02-12T06:41:53.869Z,103.60
2023-02-12T06:42:53.837Z,100.80
2023-02-12T06:43:53.787Z,102.90
2023-02-12T06:44:53.748Z,98.30
2023-02-12T06:45:54.179Z,96.70
2023-02-12T06:46:53.742Z,101.40
2023-02-12T06:47:53.630Z,99.80
2023-02-12T06:48:53.579Z,100.10
2023-02-12T06:49:53.538Z,97.10
2023-02-12T06:50:53.490Z,96.80
2023-02-12T06:51:53.452Z,92.60
2023-02-12T06:52:53.417Z,99.90
2023-02-12T06:53:53.378Z,96.00
2023-02-12T06:54:53.334Z,102.30
2023-02-12T06:55:53.567Z,99.40
2023-02-12T06:56:53.243Z,92.10
2023-02-12T06:57:53.194Z,97.70
2023-02-12T06:58:53.154Z,96.10
2023-02-12T06:59:53.115Z,98.90
2023-02-12T07:00:53.099Z,99.00
2023-02-12T07:01:53.028Z,95.70
2023-02-12T07:02:52.984Z,96.20
2023-02-12T07:03:52.992Z,100.00
2023-02-12T07:04:52.898Z,91.90
2023-02-12T07:05:53.050Z,100.30
2023-02-12T07:06:52.827Z,95.00
2023-02-12T07:07:52.774Z,100.00
2023-02-12T07:08:52.734Z,99.40
2023-02-12T07:09:52.701Z,99.50
2023-02-12T07:10:52.646Z,96.50
2023-02-12T07:11:52.617Z,100.60
2023-02-12T07:12:52.558Z,99.10
2023-02-12T07:13:52.518Z,100.40
2023-02-12T07:14:52.473Z,101.60
2023-02-12T07:15:52.455Z,100.90
2023-02-12T07:16:52.387Z,101.60
2023-02-12T07:17:52.364Z,96.50
2023-02-12T07:18:52.308Z,98.40
2023-02-12T07:19:52.266Z,103.60
2023-02-12T07:20:52.222Z,112.50
2023-02-12T07:21:52.187Z,104.50
2023-02-12T07:22:52.137Z,100.20
2023-02-12T07:23:52.112Z,99.40
2023-02-12T07:24:52.055Z,96.30
2023-02-12T07:25:52.013Z,98.00
2023-02-12T07:26:52.087Z,95.70
2023-02-12T07:27:51.931Z,92.20
2023-02-12T07:28:51.891Z,93.70
2023-02-12T07:29:51.855Z,88.40
2023-02-12T07:30:51.875Z,90.20
2023-02-12T07:31:51.770Z,90.20
2023-02-12T07:32:51.720Z,91.20
2023-02-12T07:33:51.675Z,97.90
2023-02-12T07:34:51.631Z,90.70
2023-02-12T07:35:51.598Z,158.10
2023-02-12T07:36:51.546Z,116.50
2023-02-12T07:37:51.508Z,91.70
2023-02-12T07:38:51.464Z,94.20
2023-02-12T07:39:51.433Z,90.00
2023-02-12T07:40:51.387Z,89.20
2023-02-12T07:41:51.350Z,92.30
2023-02-12T07:42:51.294Z,88.00
2023-02-12T07:43:51.253Z,87.90
2023-02-12T07:44:51.209Z,88.90
2023-02-12T07:45:51.189Z,84.30
2023-02-12T07:46:51.123Z,85.00
2023-02-12T07:47:51.094Z,187.80
2023-02-12T07:48:51.039Z,306.90
2023-02-12T07:49:50.998Z,89.20
2023-02-12T07:50:50.959Z,89.00
2023-02-12T07:51:50.926Z,88.40
2023-02-12T07:52:50.874Z,89.80
2023-02-12T07:53:50.833Z,86.90
2023-02-12T07:54:50.788Z,88.90
2023-02-12T07:55:50.753Z,89.00
2023-02-12T07:56:50.711Z,89.00
2023-02-12T07:57:50.673Z,82.60
2023-02-12T07:58:50.620Z,88.20
2023-02-12T07:59:50.585Z,86.70
2023-02-12T08:00:50.541Z,82.40
2023-02-12T08:01:50.506Z,85.10
2023-02-12T08:02:50.454Z,82.20
2023-02-12T08:03:50.425Z,94.70
2023-02-12T08:04:50.421Z,85.40
2023-02-12T08:05:50.336Z,81.90
2023-02-12T08:06:50.288Z,84.60
2023-02-12T08:07:50.246Z,80.20
2023-02-12T08:08:50.201Z,81.40
2023-02-12T08:09:50.181Z,87.60
2023-02-12T08:10:50.119Z,81.90
2023-02-12T08:11:50.088Z,80.60
2023-02-12T08:12:50.033Z,79.40
2023-02-12T08:13:50.003Z,82.20
2023-02-12T08:14:49.949Z,77.00
2023-02-12T08:15:49.927Z,78.90
2023-02-12T08:16:49.945Z,76.30
2023-02-12T08:17:49.832Z,77.40
2023-02-12T08:18:49.792Z,76.10
2023-02-12T08:19:49.756Z,81.30
2023-02-12T08:20:49.710Z,81.70
2023-02-12T08:21:49.679Z,71.70
2023-02-12T08:22:49.619Z,72.70
2023-02-12T08:23:49.579Z,71.50
2023-02-12T08:24:49.533Z,74.70
2023-02-12T08:25:49.495Z,71.00
2023-02-12T08:26:49.457Z,68.80
2023-02-12T08:27:49.428Z,71.60
2023-02-12T08:28:49.368Z,76.30
2023-02-12T08:29:49.330Z,83.40
2023-02-12T08:30:49.309Z,72.30
2023-02-12T08:31:49.351Z,73.80
2023-02-12T08:32:49.206Z,72.40
2023-02-12T08:33:49.182Z,70.10
2023-02-12T08:34:49.121Z,70.20
2023-02-12T08:35:49.085Z,65.40
2023-02-12T08:36:49.062Z,72.90
2023-02-12T08:37:48.999Z,70.50
2023-02-12T08:38:48.962Z,520.10
2023-02-12T08:39:48.927Z,1999.90
2023-02-12T08:40:48.919Z,1999.90
2023-02-12T08:41:48.851Z,1999.90
2023-02-12T08:42:48.792Z,1999.90
2023-02-12T08:43:48.766Z,1999.90
2023-02-12T08:44:48.710Z,1999.90
2023-02-12T08:45:48.697Z,1999.90
2023-02-12T08:46:48.625Z,1999.90
2023-02-12T08:47:48.591Z,1999.90
2023-02-12T08:48:48.550Z,1999.90
2023-02-12T08:49:48.513Z,1999.90
2023-02-12T08:50:48.456Z,1999.90
2023-02-12T08:51:48.418Z,62.70
2023-02-12T08:52:48.372Z,63.30
2023-02-12T08:53:48.338Z,63.20
2023-02-12T08:54:48.293Z,62.00
2023-02-12T08:55:48.266Z,62.10
2023-02-12T08:56:48.210Z,72.50
2023-02-12T08:57:48.168Z,64.70
2023-02-12T08:58:48.136Z,64.50
2023-02-12T08:59:48.084Z,64.70
2023-02-12T09:00:48.041Z,66.60
2023-02-12T09:01:48.022Z,68.00
2023-02-12T09:02:48.044Z,65.20
2023-02-12T09:03:47.921Z,67.50
2023-02-12T09:04:47.892Z,62.80
2023-02-12T09:05:47.842Z,65.50
2023-02-12T09:06:47.803Z,66.60
2023-02-12T09:07:47.773Z,65.10
2023-02-12T09:08:47.714Z,64.70
2023-02-12T09:09:47.688Z,69.10
2023-02-12T09:10:47.631Z,79.80
2023-02-12T09:11:47.595Z,65.50
2023-02-12T09:12:47.550Z,66.40
2023-02-12T09:13:47.531Z,66.80
2023-02-12T09:14:47.468Z,70.40
2023-02-12T09:15:47.433Z,69.00
2023-02-12T09:16:47.471Z,69.90
2023-02-12T09:17:47.358Z,66.20
2023-02-12T09:18:47.309Z,69.40
2023-02-12T09:19:47.290Z,64.50
2023-02-12T09:20:47.227Z,66.40
2023-02-12T09:21:47.191Z,66.30
2023-02-12T09:22:47.146Z,67.50
2023-02-12T09:23:47.113Z,63.00
2023-02-12T09:24:47.064Z,66.80
2023-02-12T09:25:47.032Z,67.50
2023-02-12T09:26:46.982Z,67.90
2023-02-12T09:27:46.957Z,72.10
2023-02-12T09:28:46.925Z,66.70
2023-02-12T09:29:46.863Z,65.80
2023-02-12T09:30:46.969Z,65.70
2023-02-12T09:31:46.838Z,64.40
2023-02-12T09:32:46.738Z,71.00
2023-02-12T09:33:48.763Z,68.10
2023-02-12T09:34:46.673Z,66.30
2023-02-12T09:35:46.620Z,65.50
2023-02-12T09:36:46.581Z,64.20
2023-02-12T09:37:46.537Z,66.20
2023-02-12T09:38:46.496Z,63.90
2023-02-12T09:39:46.457Z,66.10
2023-02-12T09:40:46.424Z,67.30
2023-02-12T09:41:46.386Z,77.20
2023-02-12T09:42:46.334Z,1315.70
2023-02-12T09:43:46.297Z,1839.20
2023-02-12T09:44:46.260Z,1999.90
2023-02-12T09:45:46.214Z,1999.90
2023-02-12T09:46:46.258Z,1999.90
2023-02-12T09:47:46.133Z,1999.90
2023-02-12T09:48:46.102Z,1999.90
2023-02-12T09:49:46.095Z,1999.90
2023-02-12T09:50:46.012Z,112.90
2023-02-12T09:51:45.984Z,59.60
2023-02-12T09:52:45.938Z,60.00
2023-02-12T09:53:45.906Z,60.70
2023-02-12T09:54:45.862Z,60.90
2023-02-12T09:55:45.827Z,55.90
2023-02-12T09:56:45.773Z,59.90
2023-02-12T09:57:45.739Z,55.80
2023-02-12T09:58:45.691Z,56.20
2023-02-12T09:59:45.667Z,55.60
2023-02-12T10:00:45.616Z,54.80
2023-02-12T10:01:45.657Z,54.70
2023-02-12T10:02:45.544Z,57.90
2023-02-12T10:03:45.527Z,56.10
2023-02-12T10:04:59.694Z,54.00
2023-02-12T10:05:45.417Z,50.70
2023-02-12T10:06:45.377Z,50.50
2023-02-12T10:07:45.338Z,51.80
2023-02-12T10:08:45.314Z,1999.90
2023-02-12T10:09:45.259Z,1999.90
2023-02-12T10:10:45.224Z,1999.90
2023-02-12T10:11:45.199Z,1999.90
2023-02-12T10:12:45.140Z,1999.90
2023-02-12T10:13:45.100Z,1999.90
2023-02-12T10:14:45.361Z,1999.90
2023-02-12T10:15:45.062Z,1999.90
2023-02-12T10:16:44.987Z,1999.90
2023-02-12T10:17:44.946Z,1999.90
2023-02-12T10:18:44.911Z,1999.90
2023-02-12T10:19:44.865Z,1999.90
2023-02-12T10:20:44.834Z,375.10
2023-02-12T10:21:44.784Z,1999.90
2023-02-12T10:22:56.057Z,1999.90
2023-02-12T10:23:44.716Z,1971.30
2023-02-12T10:24:44.676Z,1999.90
2023-02-12T10:25:44.643Z,1667.80
2023-02-12T10:26:44.602Z,1999.90
2023-02-12T10:27:44.572Z,1999.90
2023-02-12T10:28:44.507Z,1999.90
2023-02-12T10:29:44.476Z,1999.90
2023-02-12T10:30:44.490Z,1999.90
2023-02-12T10:31:44.578Z,1999.90
2023-02-12T10:32:44.353Z,1999.90
2023-02-12T10:33:44.316Z,1999.90
2023-02-12T10:34:44.275Z,1999.90
2023-02-12T10:35:44.233Z,1655.00
2023-02-12T10:36:44.213Z,1999.90
2023-02-12T10:37:44.178Z,1954.10
2023-02-12T10:38:45.767Z,1142.90
2023-02-12T10:39:44.075Z,1674.00
2023-02-12T10:40:44.031Z,1750.80
2023-02-12T10:41:43.996Z,1999.90
2023-02-12T10:42:43.967Z,576.90
2023-02-12T10:43:43.919Z,506.50
2023-02-12T10:44:43.872Z,673.10
2023-02-12T10:45:43.837Z,770.40
2023-02-12T10:46:43.856Z,493.10
2023-02-12T10:47:43.769Z,965.50
2023-02-12T10:48:43.715Z,952.60
2023-02-12T10:49:43.678Z,332.30
2023-02-12T10:50:43.639Z,496.40
2023-02-12T10:51:43.603Z,841.50
2023-02-12T10:52:43.558Z,443.30
2023-02-12T10:53:43.542Z,468.90
2023-02-12T10:54:43.491Z,386.60
2023-02-12T10:55:43.481Z,145.60
2023-02-12T10:56:43.410Z,210.40
2023-02-12T10:57:43.365Z,352.60
2023-02-12T10:58:43.337Z,444.60
2023-02-12T10:59:43.292Z,302.30
2023-02-12T11:00:43.253Z,238.90
2023-02-12T11:01:43.239Z,613.20
2023-02-12T11:02:43.170Z,536.60
2023-02-12T11:03:43.137Z,574.40
2023-02-12T11:04:43.133Z,235.50
2023-02-12T11:05:43.076Z,302.00
2023-02-12T11:06:43.013Z,717.50
2023-02-12T11:07:42.976Z,375.80
2023-02-12T11:08:42.953Z,314.00
2023-02-12T11:09:42.899Z,300.60
2023-02-12T11:10:42.871Z,147.00
2023-02-12T11:11:42.826Z,544.20
2023-02-12T11:12:42.782Z,559.50
2023-02-12T11:13:42.758Z,267.80
2023-02-12T11:14:42.703Z,314.40
2023-02-12T11:15:42.733Z,354.30
2023-02-12T11:16:42.639Z,272.20
2023-02-12T11:17:42.602Z,207.50
2023-02-12T11:18:42.548Z,396.70
2023-02-12T11:19:42.510Z,344.60
2023-02-12T11:20:42.478Z,240.00
2023-02-12T11:21:42.446Z,120.70
2023-02-12T11:22:42.396Z,46.40
2023-02-12T11:23:42.359Z,308.20
2023-02-12T11:24:42.345Z,233.70
2023-02-12T11:25:42.278Z,520.20
2023-02-12T11:26:42.239Z,395.10
2023-02-12T11:27:42.219Z,373.90
2023-02-12T11:28:42.287Z,241.30
2023-02-12T11:29:42.123Z,262.10
2023-02-12T11:30:42.114Z,231.70
2023-02-12T11:31:51.411Z,164.30
2023-02-12T11:32:42.009Z,130.50
2023-02-12T11:33:41.984Z,29.70
2023-02-12T11:34:41.931Z,29.90
2023-02-12T11:35:41.888Z,219.10
2023-02-12T11:36:41.849Z,282.60
2023-02-12T11:37:41.816Z,343.30
2023-02-12T11:38:41.773Z,187.20
2023-02-12T11:39:41.745Z,47.70
2023-02-12T11:40:41.703Z,32.80
2023-02-12T11:41:41.696Z,199.90
2023-02-12T11:42:41.618Z,82.60
2023-02-12T11:43:41.577Z,252.50
2023-02-12T11:44:41.542Z,29.70
2023-02-12T11:45:41.512Z,58.20
2023-02-12T11:46:41.501Z,80.10
2023-02-12T11:47:41.427Z,145.60
2023-02-12T11:48:41.390Z,82.20
2023-02-12T11:49:43.954Z,101.30
2023-02-12T11:50:41.320Z,49.40
2023-02-12T11:51:41.271Z,298.10
2023-02-12T11:52:41.229Z,28.40
2023-02-12T11:53:41.189Z,28.70
2023-02-12T11:54:41.155Z,46.30
2023-02-12T11:55:41.122Z,256.60
2023-02-12T11:56:41.103Z,258.70
2023-02-12T11:57:41.035Z,351.10
2023-02-12T11:58:41.001Z,28.10
2023-02-12T11:59:40.957Z,47.60
2023-02-12T12:00:40.928Z,123.00
2023-02-12T12:01:40.937Z,126.60
2023-02-12T12:02:40.884Z,30.20
2023-02-12T12:03:40.792Z,29.60
2023-02-12T12:04:40.760Z,250.10
2023-02-12T12:05:40.719Z,29.00
2023-02-12T12:06:40.693Z,28.60
2023-02-12T12:07:40.645Z,28.60
2023-02-12T12:08:40.611Z,28.30
2023-02-12T12:09:40.563Z,68.90
2023-02-12T12:10:40.541Z,28.90
2023-02-12T12:11:40.540Z,29.00
2023-02-12T12:12:40.499Z,29.20
2023-02-12T12:13:40.402Z,27.80
2023-02-12T12:14:40.363Z,27.60
2023-02-12T12:15:40.331Z,28.70
2023-02-12T12:16:40.329Z,28.00
2023-02-12T12:17:40.265Z,26.50
2023-02-12T12:18:40.210Z,29.90
2023-02-12T12:19:40.174Z,27.10
2023-02-12T12:20:40.130Z,29.80
2023-02-12T12:21:40.091Z,27.70
2023-02-12T12:22:40.059Z,28.80
2023-02-12T12:23:40.028Z,29.70
2023-02-12T12:24:39.999Z,29.60
2023-02-12T12:25:39.939Z,28.40
2023-02-12T12:26:39.900Z,28.80
2023-02-12T12:27:39.861Z,29.00
2023-02-12T12:28:39.903Z,30.10
2023-02-12T12:29:39.800Z,29.00
2023-02-12T12:30:39.785Z,29.00
2023-02-12T12:31:39.722Z,29.20
2023-02-12T12:32:39.668Z,27.60
2023-02-12T12:33:39.622Z,29.20
2023-02-12T12:34:39.590Z,29.10
2023-02-12T12:35:39.557Z,28.30
2023-02-12T12:36:39.511Z,27.70
2023-02-12T12:37:39.465Z,28.40
2023-02-12T12:38:39.468Z,28.50
2023-02-12T12:39:39.410Z,29.00
2023-02-12T12:40:39.353Z,29.50
2023-02-12T12:41:39.326Z,29.30
2023-02-12T12:42:39.278Z,29.90